Time;durP1;ratioP1;P1;durP2;ratioP2;P2;SDS_P1;SDS_P2;PMS_P1;PMS_P2;Temp;Humidity;BMP_temperature;BMP_pressure;BME280_temperature;BME280_humidity;BME280_pressure;Samples;Min_cycle;Max_cycle;Signal;HPM_P1;HPM_P2
2022/12/21 00:01:20;;;;;;;25.10;12.13;;;8.60;99.90;;;;;;5042319;28;20072;-70
2022/12/21 00:03:46;;;;;;;26.88;11.80;;;8.60;99.90;;;;;;5060447;28;20066;-70
2022/12/21 00:06:12;;;;;;;26.35;12.15;;;8.50;99.90;;;;;;5038773;28;20041;-70
2022/12/21 00:08:41;;;;;;;20.85;11.13;;;8.50;99.90;;;;;;5044503;28;20068;-71
2022/12/21 00:11:08;;;;;;;27.13;12.88;;;8.50;99.90;;;;;;5040895;28;20033;-70
2022/12/21 00:13:34;;;;;;;29.70;11.85;;;8.50;99.90;;;;;;5042417;28;20045;-71
2022/12/21 00:16:05;;;;;;;24.85;11.25;;;8.50;99.90;;;;;;5042283;28;20115;-70
2022/12/21 00:18:35;;;;;;;24.13;11.68;;;8.50;99.90;;;;;;5044064;28;20099;-70
2022/12/21 00:21:10;;;;;;;22.38;10.70;;;8.40;99.90;;;;;;5041850;28;20522;-71
2022/12/21 00:23:36;;;;;;;23.38;11.30;;;8.40;99.90;;;;;;5037439;28;20053;-70
2022/12/21 00:26:04;;;;;;;21.83;10.90;;;8.30;99.90;;;;;;5040333;28;20045;-71
2022/12/21 00:28:30;;;;;;;24.42;10.90;;;8.20;99.90;;;;;;5038124;28;20481;-71
2022/12/21 00:31:02;;;;;;;25.88;11.93;;;8.20;99.90;;;;;;5034246;28;20052;-70
2022/12/21 00:33:28;;;;;;;30.00;11.80;;;8.20;99.90;;;;;;5050158;28;20068;-71
2022/12/21 00:35:54;;;;;;;26.02;11.07;;;8.20;99.90;;;;;;5035967;28;20038;-70
2022/12/21 00:38:19;;;;;;;26.23;11.57;;;8.20;99.90;;;;;;5040739;28;20112;-70
2022/12/21 00:40:45;;;;;;;24.98;11.93;;;8.20;99.90;;;;;;5037651;28;20441;-70
2022/12/21 00:43:11;;;;;;;22.25;11.45;;;8.20;99.90;;;;;;5034888;28;20050;-70
2022/12/21 00:45:37;;;;;;;23.75;10.48;;;8.10;99.90;;;;;;5051924;28;20059;-70
2022/12/21 00:48:04;;;;;;;22.33;10.52;;;8.10;99.90;;;;;;5050918;28;20033;-70
2022/12/21 00:50:33;;;;;;;23.92;11.80;;;8.10;99.90;;;;;;5037345;28;20073;-70
2022/12/21 00:52:58;;;;;;;23.08;10.48;;;8.10;99.90;;;;;;5036276;28;20045;-71
2022/12/21 00:55:24;;;;;;;27.02;11.23;;;8.10;99.90;;;;;;5038041;28;20051;-71
2022/12/21 00:57:50;;;;;;;27.70;12.20;;;8.10;99.90;;;;;;5051617;28;20045;-71
2022/12/21 01:00:16;;;;;;;22.83;10.57;;;8.10;99.90;;;;;;5034111;28;20049;-71
2022/12/21 01:02:41;;;;;;;27.15;10.40;;;8.10;99.90;;;;;;5039837;28;20053;-71
2022/12/21 01:05:07;;;;;;;24.75;12.05;;;8.00;99.90;;;;;;5035032;28;20091;-71
2022/12/21 01:07:33;;;;;;;24.83;11.27;;;8.00;99.90;;;;;;5037438;28;20596;-71
2022/12/21 01:09:59;;;;;;;23.85;11.15;;;8.00;99.90;;;;;;5054866;28;20061;-70
2022/12/21 01:12:24;;;;;;;25.15;11.77;;;7.70;99.90;;;;;;5041369;28;20045;-71
2022/12/21 01:14:50;;;;;;;23.17;11.10;;;8.00;99.90;;;;;;5041381;28;20041;-70
2022/12/21 01:17:16;;;;;;;27.58;12.00;;;8.00;99.90;;;;;;5059120;28;20045;-71
2022/12/21 01:19:41;;;;;;;25.38;11.38;;;8.00;99.90;;;;;;5036861;28;20037;-70
2022/12/21 01:22:07;;;;;;;27.48;11.65;;;8.00;99.90;;;;;;5035114;28;20068;-71
2022/12/21 01:24:33;;;;;;;25.63;12.43;;;8.00;99.90;;;;;;5037699;28;20045;-71
2022/12/21 01:26:59;;;;;;;27.88;12.18;;;8.00;99.90;;;;;;5038622;28;20057;-70
2022/12/21 01:29:24;;;;;;;23.77;11.88;;;8.00;99.90;;;;;;5040678;28;20045;-70
2022/12/21 01:31:50;;;;;;;28.20;12.13;;;8.00;99.90;;;;;;5040528;28;20523;-70
2022/12/21 01:34:16;;;;;;;25.92;11.48;;;8.00;99.90;;;;;;5040010;28;20075;-70
2022/12/21 01:36:41;;;;;;;29.13;10.90;;;8.00;99.90;;;;;;5045639;28;20084;-70
2022/12/21 01:39:07;;;;;;;22.10;10.27;;;7.90;99.90;;;;;;5038893;28;20049;-70
2022/12/21 01:41:33;;;;;;;26.10;11.68;;;7.90;99.90;;;;;;5041227;28;20037;-70
2022/12/21 01:44:00;;;;;;;25.77;9.98;;;7.90;99.90;;;;;;5039313;28;20046;-70
2022/12/21 01:46:47;;;;;;;23.88;11.18;;;7.90;99.90;;;;;;5040353;28;20049;-71
2022/12/21 01:49:26;;;;;;;24.67;9.68;;;7.90;99.90;;;;;;5047319;28;20080;-70
2022/12/21 01:52:09;;;;;;;33.10;10.98;;;7.90;99.90;;;;;;5051590;28;20050;-70
2022/12/21 01:54:41;;;;;;;20.27;9.02;;;7.90;99.90;;;;;;5046509;28;20129;-71
2022/12/21 01:57:10;;;;;;;24.23;9.05;;;7.80;99.90;;;;;;5056932;28;20132;-70
2022/12/21 01:59:39;;;;;;;22.00;9.77;;;7.80;99.90;;;;;;5039906;28;20057;-70
2022/12/21 02:02:14;;;;;;;18.30;7.95;;;7.80;99.90;;;;;;5039034;28;20058;-69
2022/12/21 02:04:41;;;;;;;19.00;7.90;;;7.80;99.90;;;;;;5038405;28;20068;-71
2022/12/21 02:07:07;;;;;;;22.65;9.02;;;7.80;99.90;;;;;;5061592;28;20041;-71
2022/12/21 02:09:35;;;;;;;20.88;8.23;;;7.50;99.90;;;;;;5041643;28;20043;-70
2022/12/21 02:12:04;;;;;;;21.25;8.57;;;7.70;99.90;;;;;;5061048;28;20050;-70
2022/12/21 02:14:34;;;;;;;22.75;9.00;;;7.70;99.90;;;;;;5045638;28;20048;-70
2022/12/21 02:17:24;;;;;;;21.80;9.38;;;7.70;99.90;;;;;;5041019;28;20114;-71
2022/12/21 02:20:20;;;;;;;19.63;8.82;;;7.80;99.90;;;;;;5040183;28;20525;-71
2022/12/21 02:23:17;;;;;;;23.38;9.30;;;7.70;99.90;;;;;;5044414;28;20577;-71
2022/12/21 02:25:48;;;;;;;22.33;8.90;;;7.70;99.90;;;;;;5044976;28;20049;-71
2022/12/21 02:28:29;;;;;;;17.60;8.13;;;7.70;99.90;;;;;;5039159;28;20045;-70
2022/12/21 02:31:15;;;;;;;22.05;8.15;;;7.70;99.90;;;;;;5033157;28;20470;-70
2022/12/21 02:33:52;;;;;;;21.67;9.43;;;7.70;99.90;;;;;;5039694;28;20080;-70
2022/12/21 02:36:47;;;;;;;20.10;8.57;;;7.70;99.90;;;;;;5039127;28;20053;-71
2022/12/21 02:39:35;;;;;;;22.13;8.45;;;7.70;99.90;;;;;;5052109;28;20064;-70
2022/12/21 02:45:30;;;;;;;16.23;7.75;;;7.70;99.90;;;;;;5039705;28;20452;-70
2022/12/21 02:48:04;;;;;;;17.77;6.40;;;7.70;99.90;;;;;;5023989;28;20041;-70
2022/12/21 02:50:38;;;;;;;15.05;7.28;;;7.70;99.90;;;;;;5038642;28;20049;-71
2022/12/21 02:53:16;;;;;;;20.42;8.00;;;7.60;99.90;;;;;;5038644;28;20048;-70
2022/12/21 02:55:45;;;;;;;19.38;7.50;;;7.60;99.90;;;;;;5037619;28;20088;-71
2022/12/21 02:58:16;;;;;;;18.17;7.82;;;7.50;99.90;;;;;;5040119;28;20147;-70
2022/12/21 03:00:50;;;;;;;22.67;7.55;;;7.50;99.90;;;;;;5037323;28;20056;-72
2022/12/21 03:06:35;;;;;;;19.40;7.68;;;7.40;99.90;;;;;;5038927;28;20050;-70
2022/12/21 03:09:15;;;;;;;25.33;8.80;;;7.40;99.90;;;;;;5037492;28;20056;-71
2022/12/21 03:11:55;;;;;;;20.45;8.00;;;7.40;99.90;;;;;;5043167;28;20131;-71
2022/12/21 03:14:48;;;;;;;21.70;8.77;;;7.40;99.90;;;;;;5042664;28;20122;-71
2022/12/21 03:17:22;;;;;;;18.73;8.43;;;7.30;99.90;;;;;;5023038;28;20069;-70
2022/12/21 03:19:57;;;;;;;19.30;8.85;;;7.30;99.90;;;;;;5038860;28;20044;-71
2022/12/21 03:22:46;;;;;;;24.55;8.85;;;7.20;99.90;;;;;;5039296;28;20033;-70
2022/12/21 03:25:21;;;;;;;22.42;8.18;;;7.10;99.90;;;;;;5038617;28;20107;-71
2022/12/21 03:27:53;;;;;;;19.52;7.88;;;7.10;99.90;;;;;;5041216;28;20044;-71
2022/12/21 03:30:20;;;;;;;18.02;7.53;;;7.10;99.90;;;;;;5053063;28;20100;-71
2022/12/21 03:32:54;;;;;;;21.02;8.20;;;7.10;99.90;;;;;;5056829;28;20048;-70
2022/12/21 03:35:49;;;;;;;23.88;7.97;;;7.10;99.90;;;;;;5068058;28;20049;-71
2022/12/21 03:38:26;;;;;;;19.83;7.63;;;7.10;99.90;;;;;;5035118;28;20070;-71
2022/12/21 03:40:55;;;;;;;24.35;10.02;;;7.00;99.90;;;;;;5046524;28;20052;-70
2022/12/21 03:43:32;;;;;;;20.50;8.05;;;7.00;99.90;;;;;;5055556;28;20164;-71
2022/12/21 03:46:07;;;;;;;24.85;10.57;;;7.10;99.90;;;;;;5040984;28;20049;-71
2022/12/21 03:48:55;;;;;;;24.30;9.32;;;7.10;99.90;;;;;;5035759;28;20142;-71
2022/12/21 03:51:39;;;;;;;24.98;9.57;;;7.20;99.90;;;;;;5048810;28;20075;-71
2022/12/21 03:54:42;;;;;;;25.27;9.50;;;7.20;99.90;;;;;;5038823;28;20072;-70
2022/12/21 03:57:09;;;;;;;23.92;8.95;;;7.20;99.90;;;;;;5037150;28;20049;-70
2022/12/21 03:59:41;;;;;;;23.25;9.30;;;7.30;99.90;;;;;;5037542;28;20576;-70
2022/12/21 04:02:28;;;;;;;25.25;10.40;;;7.30;99.90;;;;;;5047264;28;20048;-70
2022/12/21 04:05:03;;;;;;;29.98;9.95;;;7.30;99.90;;;;;;5056329;28;20052;-70
2022/12/21 04:07:31;;;;;;;29.58;9.60;;;7.30;99.90;;;;;;5032269;28;20049;-70
2022/12/21 04:09:59;;;;;;;33.28;11.48;;;7.30;99.90;;;;;;5037164;28;20060;-70
2022/12/21 04:12:37;;;;;;;30.05;10.77;;;7.30;99.90;;;;;;5055643;28;20613;-70
2022/12/21 04:15:25;;;;;;;31.55;10.95;;;7.30;99.90;;;;;;5070414;28;20068;-70
2022/12/21 04:17:52;;;;;;;28.35;11.40;;;7.30;99.90;;;;;;5035879;28;20089;-70
2022/12/21 04:20:20;;;;;;;30.63;11.98;;;7.30;99.90;;;;;;5053129;28;20069;-71
2022/12/21 04:28:28;;;;;;;34.25;11.85;;;7.30;99.90;;;;;;5038422;28;20046;-69
2022/12/21 04:30:54;;;;;;;40.20;13.25;;;7.30;99.90;;;;;;5037353;28;20051;-70
2022/12/21 04:33:22;;;;;;;44.20;13.27;;;7.30;99.90;;;;;;5038528;28;20041;-70
2022/12/21 04:38:35;;;;;;;38.22;12.05;;;7.30;99.90;;;;;;5038760;28;20049;-70
2022/12/21 04:41:01;;;;;;;39.88;11.82;;;7.30;99.90;;;;;;5049510;28;20053;-70
2022/12/21 04:43:27;;;;;;;31.55;13.05;;;7.30;99.90;;;;;;5025918;28;20081;-71
2022/12/21 04:46:08;;;;;;;32.15;12.95;;;7.30;99.90;;;;;;5037725;28;20073;-70
2022/12/21 04:48:34;;;;;;;36.38;11.73;;;7.30;99.90;;;;;;5036022;28;20053;-70
2022/12/21 04:51:11;;;;;;;52.80;14.00;;;7.30;99.90;;;;;;5037259;28;20084;-70
2022/12/21 04:53:38;;;;;;;44.83;13.70;;;7.30;99.90;;;;;;5037855;28;20061;-70
2022/12/21 04:56:04;;;;;;;39.20;13.45;;;7.30;99.90;;;;;;5035368;28;20040;-70
2022/12/21 04:58:31;;;;;;;46.20;14.50;;;7.40;99.90;;;;;;5036462;28;20053;-70
2022/12/21 05:00:57;;;;;;;39.65;13.35;;;7.30;99.90;;;;;;5047425;28;20045;-70
2022/12/21 05:03:23;;;;;;;40.50;13.18;;;7.30;99.90;;;;;;5057033;28;20053;-70
2022/12/21 05:05:49;;;;;;;42.60;14.52;;;7.40;99.90;;;;;;5044668;28;20073;-69
2022/12/21 05:08:14;;;;;;;45.50;14.80;;;7.40;99.90;;;;;;5036115;28;20049;-70
2022/12/21 05:10:41;;;;;;;43.92;13.73;;;7.30;99.90;;;;;;5043575;28;20052;-69
2022/12/21 05:13:07;;;;;;;45.88;13.65;;;7.40;99.90;;;;;;5055460;28;20041;-70
2022/12/21 05:15:37;;;;;;;41.58;13.82;;;7.30;99.90;;;;;;5053709;28;20033;-70
2022/12/21 05:18:03;;;;;;;40.17;14.75;;;7.40;99.90;;;;;;5035544;28;20100;-70
2022/12/21 05:20:29;;;;;;;37.83;13.45;;;7.30;99.90;;;;;;5037906;28;20034;-70
2022/12/21 05:22:55;;;;;;;38.67;13.68;;;7.30;99.90;;;;;;5035044;28;20042;-70
2022/12/21 05:25:20;;;;;;;38.95;12.63;;;7.40;99.90;;;;;;5037545;28;20397;-70
2022/12/21 05:27:46;;;;;;;43.95;13.55;;;7.40;99.90;;;;;;5051834;28;20128;-70
2022/12/21 05:30:12;;;;;;;37.58;13.82;;;7.30;99.90;;;;;;5036698;28;20049;-70
2022/12/21 05:32:38;;;;;;;40.15;13.07;;;7.30;99.90;;;;;;5036437;28;20033;-70
2022/12/21 05:35:04;;;;;;;40.95;14.27;;;7.30;99.90;;;;;;5035487;28;20053;-70
2022/12/21 05:37:30;;;;;;;42.70;13.68;;;7.30;99.90;;;;;;5035362;28;20057;-70
2022/12/21 05:39:55;;;;;;;40.05;14.90;;;7.40;99.90;;;;;;5066158;28;20046;-70
2022/12/21 05:42:21;;;;;;;41.47;14.68;;;7.40;99.90;;;;;;5046866;28;20088;-70
2022/12/21 05:44:47;;;;;;;41.03;14.05;;;7.40;99.90;;;;;;5041125;28;20025;-70
2022/12/21 05:47:12;;;;;;;37.05;13.38;;;7.40;99.90;;;;;;5055079;28;20053;-70
2022/12/21 05:49:38;;;;;;;33.88;13.45;;;7.40;99.90;;;;;;5037039;28;20060;-70
2022/12/21 05:52:04;;;;;;;40.97;14.77;;;7.40;99.90;;;;;;5034906;28;20592;-70
2022/12/21 05:54:30;;;;;;;34.30;13.77;;;7.40;99.90;;;;;;5040930;28;20044;-70
2022/12/21 05:56:55;;;;;;;33.65;12.00;;;7.40;99.90;;;;;;5047895;28;20161;-70
2022/12/21 05:59:21;;;;;;;39.42;13.20;;;7.50;99.90;;;;;;5038931;28;20056;-70
2022/12/21 06:01:47;;;;;;;36.17;14.00;;;7.40;99.90;;;;;;5040068;28;20098;-70
2022/12/21 06:04:12;;;;;;;41.50;15.38;;;7.40;99.90;;;;;;5035229;28;20091;-70
2022/12/21 06:06:38;;;;;;;32.45;12.90;;;7.40;99.90;;;;;;5038442;28;20049;-70
2022/12/21 06:09:04;;;;;;;37.42;13.73;;;7.40;99.90;;;;;;5036942;28;20050;-70
2022/12/21 06:11:31;;;;;;;38.63;14.40;;;7.40;99.90;;;;;;5045357;28;20045;-70
2022/12/21 06:13:57;;;;;;;37.53;14.35;;;7.50;99.90;;;;;;5042771;28;20041;-70
2022/12/21 06:16:25;;;;;;;41.72;15.02;;;7.40;99.90;;;;;;5051169;28;20037;-70
2022/12/21 06:18:51;;;;;;;36.35;14.18;;;7.50;99.90;;;;;;5045081;28;20045;-70
2022/12/21 06:21:17;;;;;;;40.83;13.98;;;7.50;99.90;;;;;;5045091;28;20073;-70
2022/12/21 06:23:45;;;;;;;35.63;13.27;;;7.50;99.90;;;;;;5049962;28;20100;-69
2022/12/21 06:26:13;;;;;;;40.40;14.52;;;7.50;99.90;;;;;;5043142;28;20079;-70
2022/12/21 06:28:39;;;;;;;41.05;15.48;;;7.50;99.90;;;;;;5020899;28;20046;-70
2022/12/21 06:31:11;;;;;;;44.92;15.10;;;7.50;99.90;;;;;;5028245;28;20109;-69
2022/12/21 06:33:37;;;;;;;45.55;15.05;;;7.50;99.90;;;;;;5045663;28;20053;-70
2022/12/21 06:36:04;;;;;;;43.85;15.05;;;7.50;99.90;;;;;;5043160;28;20045;-69
2022/12/21 06:38:31;;;;;;;45.80;15.75;;;7.50;99.90;;;;;;5036903;28;20080;-70
2022/12/21 06:40:59;;;;;;;43.33;15.60;;;7.50;99.90;;;;;;5075553;28;20048;-69
2022/12/21 06:43:26;;;;;;;51.60;15.85;;;7.40;99.90;;;;;;5038128;28;20089;-70
2022/12/21 06:45:54;;;;;;;43.20;15.48;;;7.40;99.90;;;;;;5072075;28;20080;-69
2022/12/21 06:48:20;;;;;;;45.60;15.30;;;7.50;99.90;;;;;;5043730;28;20045;-70
2022/12/21 06:50:53;;;;;;;42.22;14.88;;;7.50;99.90;;;;;;5046510;28;20196;-70
2022/12/21 06:53:20;;;;;;;49.03;15.50;;;7.50;99.90;;;;;;5039685;28;20132;-69
2022/12/21 06:55:46;;;;;;;44.95;15.52;;;7.50;99.90;;;;;;5037695;28;20056;-70
2022/12/21 06:58:13;;;;;;;50.72;16.95;;;7.40;99.90;;;;;;5040081;28;20128;-69
2022/12/21 07:00:39;;;;;;;55.78;15.77;;;7.40;99.90;;;;;;5035868;28;20041;-70
2022/12/21 07:03:04;;;;;;;44.90;16.02;;;7.40;99.90;;;;;;5039632;28;20044;-71
2022/12/21 07:05:30;;;;;;;53.05;17.08;;;7.50;99.90;;;;;;5041901;28;20103;-70
2022/12/21 07:07:56;;;;;;;45.75;16.35;;;7.40;99.90;;;;;;5050574;28;20364;-70
2022/12/21 07:10:22;;;;;;;47.50;15.50;;;7.40;99.90;;;;;;5038694;28;20041;-69
2022/12/21 07:12:47;;;;;;;50.67;18.10;;;7.40;99.90;;;;;;5037933;28;20038;-69
2022/12/21 07:15:13;;;;;;;48.97;18.08;;;7.40;99.90;;;;;;5055966;28;20049;-69
2022/12/21 07:17:39;;;;;;;49.95;17.15;;;7.40;99.90;;;;;;5049744;28;20440;-69
2022/12/21 07:20:05;;;;;;;47.35;17.77;;;7.40;99.90;;;;;;5044378;28;20048;-69
2022/12/21 07:22:31;;;;;;;50.65;16.85;;;7.40;99.90;;;;;;5045618;28;20052;-70
2022/12/21 07:24:56;;;;;;;42.40;16.40;;;7.40;99.90;;;;;;5037234;28;20117;-70
2022/12/21 07:27:22;;;;;;;42.40;16.17;;;7.40;99.90;;;;;;5038474;28;20045;-70
2022/12/21 07:29:48;;;;;;;44.58;16.02;;;7.40;99.90;;;;;;5048207;28;20555;-70
2022/12/21 07:32:14;;;;;;;47.65;15.60;;;7.40;99.90;;;;;;5038724;28;20041;-69
2022/12/21 07:34:39;;;;;;;50.70;16.90;;;7.40;99.90;;;;;;5036822;28;20620;-69
2022/12/21 07:37:05;;;;;;;54.08;19.08;;;7.40;99.90;;;;;;5040624;28;20103;-69
2022/12/21 07:39:31;;;;;;;55.05;16.30;;;7.40;99.90;;;;;;5056959;28;20045;-69
2022/12/21 07:41:56;;;;;;;61.35;17.50;;;7.30;99.90;;;;;;5050947;28;20061;-69
2022/12/21 07:44:22;;;;;;;53.35;19.75;;;7.30;99.90;;;;;;5043718;28;20132;-70
2022/12/21 07:46:48;;;;;;;56.83;18.27;;;7.40;99.90;;;;;;5037591;28;20058;-70
2022/12/21 07:49:13;;;;;;;61.53;17.77;;;7.30;99.90;;;;;;5036493;28;20113;-69
2022/12/21 07:51:39;;;;;;;75.55;18.85;;;7.30;99.90;;;;;;5056629;28;20063;-69
2022/12/21 07:54:05;;;;;;;71.35;19.73;;;7.30;99.90;;;;;;5054254;28;20041;-70
2022/12/21 07:56:31;;;;;;;55.17;17.65;;;7.30;99.90;;;;;;5045260;28;20093;-69
2022/12/21 07:58:59;;;;;;;63.63;20.13;;;7.30;99.90;;;;;;5057570;28;20052;-70
2022/12/21 08:01:26;;;;;;;56.03;17.15;;;7.30;99.90;;;;;;5036023;28;20122;-69
2022/12/21 08:03:53;;;;;;;51.20;18.20;;;7.30;99.90;;;;;;5033025;28;20964;-70
2022/12/21 08:06:19;;;;;;;60.67;18.15;;;7.30;99.90;;;;;;5042512;28;20045;-69
2022/12/21 08:08:45;;;;;;;63.08;19.70;;;7.30;99.90;;;;;;5036234;28;20033;-70
2022/12/21 08:11:13;;;;;;;54.60;17.83;;;7.30;99.90;;;;;;5021104;28;20076;-70
2022/12/21 08:13:41;;;;;;;58.95;18.30;;;7.30;99.90;;;;;;5024774;28;20043;-70
2022/12/21 08:16:09;;;;;;;60.45;17.48;;;7.30;99.90;;;;;;5035470;28;20108;-71
2022/12/21 08:18:35;;;;;;;53.78;18.02;;;7.30;99.90;;;;;;5027022;28;20054;-70
2022/12/21 08:21:01;;;;;;;60.72;17.75;;;7.30;99.90;;;;;;5047809;28;20428;-71
2022/12/21 08:23:27;;;;;;;61.55;18.77;;;7.30;99.90;;;;;;5028207;28;20046;-70
2022/12/21 08:25:53;;;;;;;47.67;16.42;;;7.30;99.90;;;;;;5022596;28;20060;-71
2022/12/21 08:28:18;;;;;;;40.10;16.10;;;7.30;99.90;;;;;;5040931;28;20408;-70
2022/12/21 08:30:45;;;;;;;45.80;15.90;;;7.30;99.90;;;;;;5020926;28;20073;-70
2022/12/21 08:33:11;;;;;;;44.33;16.05;;;7.30;99.90;;;;;;5020280;28;20097;-70
2022/12/21 08:35:37;;;;;;;43.83;16.10;;;7.30;99.90;;;;;;5021540;28;20049;-71
2022/12/21 08:38:03;;;;;;;44.25;16.30;;;7.30;99.90;;;;;;5033241;28;20054;-73
2022/12/21 08:40:28;;;;;;;52.95;17.77;;;7.20;99.90;;;;;;5023616;28;20044;-73
2022/12/21 08:42:54;;;;;;;62.45;18.27;;;7.30;99.90;;;;;;5029706;28;20037;-73
2022/12/21 08:45:20;;;;;;;43.50;16.38;;;7.30;99.90;;;;;;5019788;28;20054;-74
2022/12/21 08:47:48;;;;;;;44.40;16.75;;;7.30;99.90;;;;;;5015278;28;20065;-74
2022/12/21 08:50:14;;;;;;;50.35;16.92;;;7.30;99.90;;;;;;5016964;28;20069;-74
2022/12/21 08:52:40;;;;;;;53.97;17.77;;;7.30;99.90;;;;;;5016020;28;20473;-73
2022/12/21 08:55:06;;;;;;;60.08;18.23;;;7.30;99.90;;;;;;5023325;28;20046;-75
2022/12/21 08:57:32;;;;;;;50.60;17.30;;;7.30;99.90;;;;;;5027294;28;20421;-75
2022/12/21 08:59:58;;;;;;;51.13;17.25;;;7.30;99.90;;;;;;5027732;28;20034;-74
2022/12/21 09:02:24;;;;;;;43.85;15.65;;;7.20;99.90;;;;;;5017789;28;20485;-75
2022/12/21 09:04:49;;;;;;;48.22;18.35;;;7.20;99.90;;;;;;5019015;28;20046;-73
2022/12/21 09:07:15;;;;;;;49.30;18.27;;;7.20;99.90;;;;;;5023796;28;20041;-76
2022/12/21 09:09:43;;;;;;;44.75;16.88;;;7.20;99.90;;;;;;5023312;28;20060;-75
2022/12/21 09:12:09;;;;;;;49.42;18.08;;;7.20;99.90;;;;;;5017835;28;20042;-73
2022/12/21 09:14:34;;;;;;;44.08;17.83;;;7.20;99.90;;;;;;5031805;28;20106;-73
2022/12/21 09:17:00;;;;;;;41.50;16.70;;;7.30;99.90;;;;;;5027187;28;20053;-75
2022/12/21 09:19:26;;;;;;;48.58;18.00;;;7.30;99.90;;;;;;5017063;28;20046;-73
2022/12/21 09:21:51;;;;;;;40.05;15.77;;;7.30;99.90;;;;;;5036527;28;20095;-74
2022/12/21 09:24:17;;;;;;;48.03;17.75;;;7.30;99.90;;;;;;5016929;28;20180;-76
2022/12/21 09:26:43;;;;;;;51.42;17.77;;;7.30;99.90;;;;;;5050050;28;20033;-73
2022/12/21 09:29:10;;;;;;;34.67;14.57;;;7.30;99.90;;;;;;5024807;28;20056;-74
2022/12/21 09:31:36;;;;;;;46.00;16.50;;;7.30;99.90;;;;;;5029875;28;20050;-76
2022/12/21 09:34:01;;;;;;;49.92;18.40;;;7.30;99.90;;;;;;5014785;28;20387;-74
2022/12/21 09:36:27;;;;;;;43.33;15.63;;;7.40;99.90;;;;;;5031156;28;20041;-73
2022/12/21 09:38:54;;;;;;;40.58;15.93;;;7.30;99.90;;;;;;5027520;28;20132;-75
2022/12/21 09:41:29;;;;;;;40.13;16.92;;;7.30;99.90;;;;;;5020532;28;20046;-76
2022/12/21 09:44:20;;;;;;;43.00;17.17;;;7.30;99.90;;;;;;5020134;28;20097;-75
2022/12/21 09:46:50;;;;;;;35.65;15.43;;;7.30;99.90;;;;;;5007337;28;20062;-75
2022/12/21 09:49:39;;;;;;;39.70;16.50;;;7.30;99.90;;;;;;5026016;28;20042;-76
2022/12/21 09:52:12;;;;;;;32.67;13.50;;;7.40;99.90;;;;;;5023497;28;20040;-72
2022/12/21 09:54:44;;;;;;;33.42;13.23;;;7.40;99.90;;;;;;5025944;28;20046;-75
2022/12/21 09:57:13;;;;;;;32.13;14.00;;;7.40;99.90;;;;;;5019464;28;20136;-72
2022/12/21 09:59:39;;;;;;;30.67;14.02;;;7.40;99.90;;;;;;5034196;28;20071;-75
2022/12/21 10:02:19;;;;;;;30.33;12.70;;;7.50;99.90;;;;;;5023274;28;20052;-74
2022/12/21 10:05:00;;;;;;;30.40;14.18;;;7.50;99.90;;;;;;5026668;28;20050;-76
2022/12/21 10:07:35;;;;;;;31.92;12.90;;;7.80;99.90;;;;;;5023266;28;20069;-74
2022/12/21 10:10:38;;;;;;;31.77;13.45;;;7.50;99.90;;;;;;5028271;28;20050;-72
2022/12/21 10:13:32;;;;;;;30.70;13.93;;;7.50;99.90;;;;;;5034730;28;20058;-74
2022/12/21 10:16:28;;;;;;;28.23;13.50;;;7.30;99.90;;;;;;5020283;28;20042;-75
2022/12/21 10:19:13;;;;;;;30.77;12.52;;;7.50;99.90;;;;;;5018914;28;20042;-75
2022/12/21 10:22:00;;;;;;;29.80;13.80;;;7.50;99.90;;;;;;5017662;28;20054;-76
2022/12/21 10:24:31;;;;;;;29.20;13.35;;;7.50;99.90;;;;;;5063336;28;20111;-76
2022/12/21 10:27:29;;;;;;;31.83;14.07;;;7.50;99.90;;;;;;5020483;28;20077;-75
2022/12/21 10:29:57;;;;;;;29.95;13.25;;;7.60;99.90;;;;;;5032855;28;20061;-77
2022/12/21 10:32:27;;;;;;;28.00;11.98;;;7.60;99.90;;;;;;5027860;28;20383;-74
2022/12/21 10:34:55;;;;;;;28.83;12.88;;;7.70;99.90;;;;;;5018374;28;20034;-75
2022/12/21 10:37:21;;;;;;;25.20;12.45;;;7.70;99.90;;;;;;5026921;28;20046;-75
2022/12/21 10:39:55;;;;;;;28.88;14.48;;;7.70;99.90;;;;;;5033752;28;20033;-74
2022/12/21 10:42:41;;;;;;;27.63;12.70;;;7.80;99.90;;;;;;5038603;28;20509;-75
2022/12/21 10:45:15;;;;;;;25.15;12.93;;;7.80;99.90;;;;;;5039321;28;20741;-75
2022/12/21 10:47:44;;;;;;;25.55;13.07;;;7.80;99.90;;;;;;5030502;28;20194;-75
2022/12/21 10:50:17;;;;;;;29.58;13.23;;;7.80;99.90;;;;;;5033171;28;20041;-74
2022/12/21 10:52:44;;;;;;;25.40;11.38;;;7.80;99.90;;;;;;5031240;28;20544;-73
2022/12/21 10:55:19;;;;;;;30.17;13.40;;;7.90;99.90;;;;;;5033936;28;20709;-72
2022/12/21 10:57:46;;;;;;;28.48;12.27;;;7.80;99.90;;;;;;5019453;28;20418;-73
2022/12/21 11:00:29;;;;;;;23.58;11.45;;;7.90;99.90;;;;;;5067843;28;20045;-75
2022/12/21 11:02:57;;;;;;;27.27;13.32;;;7.90;99.90;;;;;;5036370;28;20060;-75
2022/12/21 11:05:28;;;;;;;25.10;11.65;;;7.90;99.90;;;;;;5017456;28;20064;-75
2022/12/21 11:08:12;;;;;;;23.40;11.85;;;8.00;99.90;;;;;;5043494;28;20387;-74
2022/12/21 11:10:41;;;;;;;28.65;12.32;;;8.00;99.90;;;;;;5034672;28;20041;-73
2022/12/21 11:13:07;;;;;;;31.77;11.52;;;7.90;99.90;;;;;;5019665;28;20046;-74
2022/12/21 11:15:33;;;;;;;25.75;12.55;;;8.00;99.90;;;;;;5041879;28;20038;-76
2022/12/21 11:18:00;;;;;;;23.25;10.50;;;8.00;99.90;;;;;;5023534;28;20063;-74
2022/12/21 11:20:26;;;;;;;31.05;11.20;;;8.00;99.90;;;;;;5052225;28;20044;-75
2022/12/21 11:22:55;;;;;;;27.42;11.35;;;7.90;99.90;;;;;;5023907;28;20482;-73
2022/12/21 11:25:25;;;;;;;22.73;11.10;;;7.90;99.90;;;;;;5068779;28;20049;-74
2022/12/21 11:27:57;;;;;;;25.67;11.85;;;7.90;99.90;;;;;;5032964;28;20093;-73
2022/12/21 11:30:27;;;;;;;24.70;11.07;;;7.90;99.90;;;;;;5015820;28;20053;-74
2022/12/21 11:32:55;;;;;;;26.67;12.07;;;7.90;99.90;;;;;;5018968;28;20050;-75
2022/12/21 11:35:24;;;;;;;22.88;10.15;;;7.90;99.90;;;;;;5017080;28;20398;-74
2022/12/21 11:37:56;;;;;;;28.90;11.93;;;7.90;99.90;;;;;;5037472;28;20306;-75
2022/12/21 11:40:27;;;;;;;22.95;11.43;;;8.00;99.90;;;;;;5034677;28;20053;-74
2022/12/21 11:43:03;;;;;;;30.60;11.90;;;7.90;99.90;;;;;;5048883;28;20038;-74
2022/12/21 11:45:47;;;;;;;26.10;12.55;;;8.00;99.90;;;;;;5034887;28;20063;-74
2022/12/21 11:48:46;;;;;;;33.03;13.07;;;8.00;99.90;;;;;;5024449;28;20052;-74
2022/12/21 11:51:30;;;;;;;25.58;11.77;;;8.00;99.90;;;;;;5015729;28;20046;-73
2022/12/21 11:53:59;;;;;;;28.25;12.98;;;8.00;99.90;;;;;;5064571;28;20123;-74
2022/12/21 11:56:31;;;;;;;27.65;11.88;;;8.00;99.90;;;;;;5034233;28;20041;-73
2022/12/21 11:59:19;;;;;;;27.00;12.07;;;8.00;99.90;;;;;;5029432;28;20050;-74
2022/12/21 12:01:59;;;;;;;31.00;13.05;;;8.00;99.90;;;;;;5017771;28;20041;-73
2022/12/21 12:05:21;;;;;;;29.73;14.93;;;8.10;99.90;;;;;;5028434;28;20132;-74
2022/12/21 12:08:03;;;;;;;27.98;13.45;;;8.20;99.90;;;;;;4956461;29;20051;-74
2022/12/21 12:10:35;;;;;;;33.50;14.55;;;8.20;99.90;;;;;;4956177;28;20047;-73
2022/12/21 12:13:29;;;;;;;31.13;14.75;;;8.30;99.90;;;;;;5020912;28;20057;-71
2022/12/21 12:16:27;;;;;;;31.00;14.70;;;8.40;99.90;;;;;;5025469;28;20102;-72
2022/12/21 12:19:10;;;;;;;28.15;12.77;;;8.40;99.90;;;;;;5057232;28;20057;-75
2022/12/21 12:21:55;;;;;;;27.50;13.65;;;8.40;99.90;;;;;;5022988;28;20045;-75
2022/12/21 12:24:29;;;;;;;27.80;13.38;;;8.30;99.90;;;;;;5029209;28;20045;-74
2022/12/21 12:27:10;;;;;;;28.80;13.23;;;8.30;99.90;;;;;;5019362;28;20049;-75
2022/12/21 12:29:39;;;;;;;26.73;12.70;;;8.30;99.90;;;;;;5021302;28;20153;-73
2022/12/21 12:32:11;;;;;;;26.15;11.82;;;8.40;99.90;;;;;;5017391;28;20081;-75
2022/12/21 12:35:11;;;;;;;28.27;12.35;;;8.50;99.90;;;;;;5028132;28;20088;-75
2022/12/21 12:37:55;;;;;;;26.38;13.30;;;8.50;99.90;;;;;;5033324;28;20084;-75
2022/12/21 12:40:32;;;;;;;25.52;12.73;;;8.40;99.90;;;;;;5017714;28;20046;-75
2022/12/21 12:43:25;;;;;;;24.27;11.52;;;8.40;99.90;;;;;;5022776;28;20077;-74
2022/12/21 12:46:00;;;;;;;27.27;14.13;;;8.40;99.90;;;;;;5035365;28;20436;-75
2022/12/21 12:48:57;;;;;;;29.95;13.85;;;8.60;99.90;;;;;;5025135;28;20054;-75
2022/12/21 12:51:44;;;;;;;27.73;12.98;;;8.60;99.90;;;;;;5021149;28;20101;-74
2022/12/21 12:54:31;;;;;;;27.35;12.35;;;8.80;99.90;;;;;;5059858;28;20045;-75
2022/12/21 12:57:17;;;;;;;27.05;12.50;;;8.80;99.90;;;;;;5064452;28;20057;-76
2022/12/21 13:00:07;;;;;;;27.75;13.35;;;8.80;99.90;;;;;;5039426;28;20060;-74
2022/12/21 13:03:02;;;;;;;26.88;12.88;;;8.60;99.90;;;;;;5033906;28;20053;-74
2022/12/21 13:05:27;;;;;;;25.30;13.40;;;8.50;99.90;;;;;;5032251;28;20053;-74
2022/12/21 13:08:12;;;;;;;28.88;12.73;;;8.50;99.90;;;;;;5025545;28;20113;-75
2022/12/21 13:10:54;;;;;;;28.95;13.48;;;8.50;99.90;;;;;;5033941;28;20076;-75
2022/12/21 13:13:55;;;;;;;27.73;12.93;;;8.50;99.90;;;;;;5034308;28;20093;-74
2022/12/21 13:16:50;;;;;;;23.05;11.18;;;8.50;99.90;;;;;;5036855;28;20109;-75